Station PAXA2 - Point Arden, AK Image indicating link to RSS feed of recent meteorological observations for station PAXA2


Conditions at PAXA2 as of
(6:03 pm AKDT on 04/20/2024)
0203 GMT on 04/21/2024:
     

Click on the graph icon in the table below to see a time series plot of the last five days of that observation.

5-day plot - Wind Direction Wind Direction (WDIR): NE ( 50 deg true )
5-day plot - Wind Speed Wind Speed (WSPD): 8 kts
5-day plot - Wind Gust Wind Gust (GST): 11 kts
5-day plot - Air Temperature Air Temperature (ATMP): 51.4 °F
5-day plot - Dew Point Dew Point (DEWP): 33.3 °F
5-day plot - Wind Chill Wind Chill (CHILL): 48.0 °F
5-day plot - Wind Speed at 10 Meters Wind Speed at 10 meters (WSPD10M): 10 kts
5-day plot - Wind Speed at 20 Meters Wind Speed at 20 meters (WSPD20M): 10 kts
5-day plot -  Wind Speed, Wind Gust and Atmospheric Pressure Combined plot of Wind Speed, Gust, and Air Pressure
Previous observations
TIME
(AKDT)
5-day plot - Wind Direction
WDIR
 
5-day plot - Wind Speed
WSPD
kts
5-day plot - Wind Gust
GST
kts
5-day plot - Wave Height
WVHT
ft
5-day plot - Dominant Wave Period
DPD
sec
5-day plot - Average Wave Period
APD
sec
5-day plot - Mean Wave Direction
MWD
 
5-day plot - Atmospheric Pressure
PRES
in
5-day plot - Pressure Tendency
PTDY
in
5-day plot - Air Temperature
ATMP
°F
5-day plot - Water Temperature
WTMP
°F
5-day plot - Dew Point
DEWP
°F
5-day plot - Salinity
SAL
psu
5-day plot - Visibility
VIS
nmi
5-day plot - Tide (above MLLW)
TIDE
ft
2024-04-20 05:43 pm NE 8 11------ 51.1- 33.4---
2024-04-20 05:33 pm NE 7 11------ 51.4- 33.1---
2024-04-20 05:23 pm NE 8 12------ 51.6- 32.4---
2024-04-20 05:13 pmENE 9 12------ 51.4- 32.0---
2024-04-20 05:03 pmENE 9 13------ 51.3- 32.0---
2024-04-20 04:53 pmENE 8 11------ 51.1- 32.5---
2024-04-20 04:43 pmENE 8 12------ 50.9- 32.7---
2024-04-20 04:33 pmENE 8 12------ 50.7- 32.9---
2024-04-20 04:23 pmENE 8 13------ 50.5- 32.9---
2024-04-20 04:13 pmENE 8 13------ 50.0- 33.6---
2024-04-20 03:53 pmENE 8 12------ 49.8- 33.6---
2024-04-20 03:43 pmENE 9 13------ 49.8- 33.1---
2024-04-20 03:33 pmENE 9 13------ 50.0- 32.9---
2024-04-20 03:23 pmENE 9 13------ 49.8- 32.9---
2024-04-20 03:13 pmENE 9 13------ 49.6- 32.9---
2024-04-20 03:03 pmENE 9 13------ 49.5- 33.3---
2024-04-20 02:53 pmENE 8 12------ 49.3- 33.4---
2024-04-20 02:43 pmENE 9 14------ 49.3- 33.3---
2024-04-20 02:33 pmENE 9 14------ 49.3- 32.9---
2024-04-20 02:23 pmENE 10 13------ 49.1- 32.9---
2024-04-20 02:13 pmENE 9 13------ 48.7- 33.3---
2024-04-20 02:03 pmENE 9 14------ 48.6- 33.1---
2024-04-20 01:53 pmENE 9 14------ 48.4- 32.7---
2024-04-20 01:43 pmENE 9 15------ 48.4- 32.7---
2024-04-20 01:33 pmENE 9 14------ 48.0- 33.3---
2024-04-20 01:23 pm E 9 16------ 47.7- 33.8---
2024-04-20 01:13 pmENE 10 17------ 47.8- 33.1---
2024-04-20 01:03 pmENE 9 16------ 48.7- 32.5---
2024-04-20 12:53 pmENE 10 16------ 48.6- 32.5---
2024-04-20 12:43 pmENE 9 17------ 48.0- 33.3---
2024-04-20 12:33 pm NE 7 12------ 47.5- 34.5---
2024-04-20 12:23 pm N 8 16------ 47.5- 34.0---
2024-04-20 12:03 pmNNE 9 16------ 48.4- 31.6---
2024-04-20 11:53 amNNE 5 14------ 47.8- 33.8---
2024-04-20 11:43 amNNE 8 13------ 47.1- 34.7---
2024-04-20 11:33 amNNE 8 17------ 48.4- 32.4---
2024-04-20 11:23 am N 7 14------ 48.9- 31.3---
2024-04-20 11:13 am NE 3 10------ 50.4- 32.2---
2024-04-20 11:03 am E 2 7------ 50.4- 32.5---
2024-04-20 10:53 amWNW 1 4------ 49.6- 31.1---
2024-04-20 10:43 amWNW 2 4------ 49.1- 34.0---
2024-04-20 10:33 am- 0 3------ 50.7- 33.8---
2024-04-20 10:23 amESE 1 3------ 50.0- 35.6---
2024-04-20 10:13 amNNW 1 6------ 48.6- 33.3---
2024-04-20 10:03 amESE 2 4------ 48.4- 34.5---
2024-04-20 09:53 am SE 4 8------ 48.0- 33.4---
2024-04-20 09:43 am SE 3 6------ 48.0- 34.2---
2024-04-20 09:33 amESE 3 5------ 48.0- 33.6---
2024-04-20 09:13 am SE 5 8------ 47.1- 34.3---
2024-04-20 09:03 amESE 3 6------ 47.3- 37.4---
2024-04-20 08:43 amNNW 3 5------ 44.8- 37.9---
2024-04-20 08:33 amNNW 2 4------ 45.0- 37.4---
2024-04-20 08:23 amNNE 2 4------ 46.0- 36.5---
2024-04-20 08:13 am SE 4 7------ 45.3- 35.2---
2024-04-20 08:08 am SE 4 14------ 45.5- 37.2---
2024-04-20 08:03 am SE 4 14------ 45.5- 37.2---
2024-04-20 07:43 amWNW 2 4------ 44.2- 37.2---
2024-04-20 07:33 amWNW 2 5------ 43.3- 36.9---
2024-04-20 07:23 amWNW 2 4------ 43.2- 36.5---
2024-04-20 07:13 amWNW 2 4------ 43.0- 35.8---
2024-04-20 07:03 am NW 2 4------ 42.6- 35.2---
2024-04-20 06:53 amWNW 1 3------ 42.3- 34.3---
2024-04-20 06:43 am NW 2 4------ 41.5- 33.3---
2024-04-20 06:33 am- 0 1------ 41.0- 33.3---
2024-04-20 06:23 am- 0 2------ 41.0- 33.6---
2024-04-20 06:13 amNNE 1 3------ 41.4- 33.1---
2024-04-20 06:03 am- 0 2------ 41.0- 32.7---
2024-04-20 05:53 am- 0 2------ 41.2- 33.6---
2024-04-20 05:43 amWNW 2 3------ 41.0- 34.5---
2024-04-20 05:33 am NW 1 2------ 41.4- 34.0---
2024-04-20 05:23 amSSW 2 3------ 41.4- 34.3---
2024-04-20 05:13 amWNW 3 4------ 41.2- 35.2---
2024-04-20 05:03 amWNW 2 4------ 41.5- 34.9---
2024-04-20 04:53 am W 1 2------ 41.7- 34.5---
2024-04-20 04:43 am W 1 3------ 41.7- 33.6---
2024-04-20 04:33 amWNW 1 3------ 41.4- 32.9---
2024-04-20 04:23 amSSE 3 7------ 41.9- 33.1---
2024-04-20 04:13 amSSE 3 8------ 41.7- 32.5---
2024-04-20 04:03 am- 0 3------ 41.5- 32.9---
2024-04-20 03:53 amSSE 2 6------ 41.9- 33.1---
2024-04-20 03:43 am SE 4 6------ 41.7- 32.9---
2024-04-20 03:33 am SE 4 7------ 41.5- 32.9---
2024-04-20 03:23 am SE 4 8------ 41.9- 33.3---
2024-04-20 03:13 amSSE 4 9------ 42.3- 34.0---
2024-04-20 03:03 am SE 6 13------ 43.0- 35.2---
2024-04-20 02:53 amSSE 6 11------ 43.2- 33.3---
2024-04-20 02:43 amSSE 3 6------ 43.3- 32.9---
2024-04-20 02:33 am S 3 6------ 42.1- 33.6---
2024-04-20 02:23 am SE 3 6------ 42.3- 34.5---
2024-04-20 02:13 am S 3 6------ 42.8- 35.2---
2024-04-20 02:03 amSSE 4 8------ 42.6- 35.2---
2024-04-20 01:43 amESE 9 15------ 43.5- 34.7---
2024-04-20 01:33 am E 7 13------ 43.7- 34.5---
2024-04-20 01:23 amENE 7 12------ 43.5- 34.7---
2024-04-20 01:13 am SE 3 9------ 43.9- 34.7---
2024-04-20 01:03 am NW 2 8------ 44.1- 34.9---
2024-04-20 12:53 am N 3 9------ 44.1- 34.9---
2024-04-20 12:43 amWNW 2 6------ 44.2- 34.3---
2024-04-20 12:33 am S 3 6------ 44.2- 34.0---
2024-04-20 12:23 am S 3 9------ 44.6- 34.0---
2024-04-20 12:13 am S 2 7------ 44.6- 33.8---
2024-04-20 12:03 am S 1 3------ 44.6- 35.1---
2024-04-19 11:53 pm S 2 6------ 44.8- 35.1---
2024-04-19 11:43 pmSSE 3 9------ 45.3- 33.8---
2024-04-19 11:33 pmSSW 2 4------ 45.3- 33.8---
2024-04-19 11:23 pmSSE 2 7------ 45.3- 34.2---
2024-04-19 11:13 pm S 2 4------ 44.8- 34.9---
2024-04-19 11:03 pm S 2 5------ 45.0- 35.4---
2024-04-19 10:53 pmSSE 2 7------ 45.0- 35.4---
2024-04-19 10:43 pmSSE 3 6------ 45.3- 35.1---
2024-04-19 10:33 pm SW 1 5------ 45.7- 34.7---
2024-04-19 10:23 pm N 3 8------ 46.2- 35.1---
2024-04-19 10:13 pmESE 2 7------ 45.9- 35.2---
2024-04-19 10:03 pmSSW 2 3------ 46.4- 34.5---
2024-04-19 09:53 pm N 3 8------ 46.9- 35.1---
2024-04-19 09:43 pmENE 3 8------ 47.1- 35.6---
2024-04-19 09:33 pm E 4 8------ 47.8- 34.3---
2024-04-19 09:23 pmENE 4 9------ 48.7- 33.8---
2024-04-19 09:13 pm NE 4 10------ 49.6- 33.1---
2024-04-19 09:03 pmNNE 4 8------ 48.6- 35.2---
2024-04-19 08:53 pm NE 4 10------ 48.6- 35.4---
2024-04-19 08:43 pmNNE 6 12------ 49.5- 34.3---
2024-04-19 08:33 pm NE 6 11------ 49.6- 34.7---
2024-04-19 08:23 pm NE 6 11------ 50.4- 34.5---
2024-04-19 08:13 pm NE 7 11------ 50.2- 34.9---
2024-04-19 08:03 pm NE 6 10------ 50.5- 34.9---
2024-04-19 07:53 pm NE 2 7------ 51.1- 35.2---
2024-04-19 07:43 pmSSW 1 4------ 51.4- 34.9---
2024-04-19 07:33 pmSSE 2 4------ 52.2- 33.6---
2024-04-19 07:23 pm- 0 3------ 52.2- 33.3---
2024-04-19 07:13 pm SE 2 7------ 51.8- 36.0---
2024-04-19 07:03 pm S 1 5------ 54.0- 32.5---
2024-04-19 06:53 pmENE 1 4------ 54.3- 32.2---
2024-04-19 06:43 pmNNE 2 6------ 54.1- 30.9---
2024-04-19 06:33 pmNNE 2 4------ 53.6- 32.7---
2024-04-19 06:23 pm N 3 5------ 53.6- 33.3---
2024-04-19 06:13 pm NE 3 5------ 53.6- 33.1---
2024-04-19 06:03 pmENE 2 5------ 54.5- 33.4---
2024-04-19 05:53 pm NW 2 5------ 55.4- 30.2---